createdAt,value
2022-08-26T00:01:31.902Z,52.30
2022-08-26T00:03:58.852Z,54.30
2022-08-26T00:06:25.689Z,54.80
2022-08-26T00:08:52.264Z,54.70
2022-08-26T00:11:26.295Z,53.70
2022-08-26T00:13:53.161Z,54.80
2022-08-26T00:16:20.014Z,54.90
2022-08-26T00:18:46.595Z,55.50
2022-08-26T00:21:13.325Z,54.80
2022-08-26T00:23:40.667Z,55.90
2022-08-26T00:26:08.224Z,57.50
2022-08-26T00:28:35.297Z,57.90
2022-08-26T00:31:01.945Z,58.10
2022-08-26T00:33:28.500Z,58.10
2022-08-26T00:35:55.119Z,58.10
2022-08-26T00:38:22.221Z,58.10
2022-08-26T00:40:52.136Z,57.20
2022-08-26T00:43:19.404Z,58.60
2022-08-26T00:45:52.267Z,58.50
2022-08-26T00:48:21.394Z,59.70
2022-08-26T00:50:54.473Z,60.30
2022-08-26T00:53:23.992Z,60.10
2022-08-26T00:55:54.330Z,59.70
2022-08-26T00:58:22.510Z,61.00
2022-08-26T01:00:49.259Z,60.10
2022-08-26T01:03:17.070Z,60.50
2022-08-26T01:05:43.770Z,60.40
2022-08-26T01:08:10.540Z,61.70
2022-08-26T01:10:37.186Z,61.50
2022-08-26T01:13:06.879Z,61.80
2022-08-26T01:15:45.121Z,62.40
2022-08-26T01:18:11.878Z,62.70
2022-08-26T01:20:47.781Z,64.10
2022-08-26T01:23:15.074Z,64.10
2022-08-26T01:25:43.576Z,64.10
2022-08-26T01:28:13.701Z,64.00
2022-08-26T01:30:41.684Z,64.00
2022-08-26T01:33:10.957Z,65.30
2022-08-26T01:35:38.250Z,65.40
2022-08-26T01:38:04.862Z,65.20
2022-08-26T01:40:33.761Z,66.90
2022-08-26T01:43:01.358Z,66.50
2022-08-26T01:45:30.311Z,66.90
2022-08-26T01:47:57.991Z,65.90
2022-08-26T01:50:30.621Z,66.10
2022-08-26T01:52:59.070Z,66.80
2022-08-26T01:55:33.408Z,68.30
2022-08-26T01:58:04.607Z,67.30
2022-08-26T02:00:32.741Z,68.20
2022-08-26T02:03:17.508Z,68.20
2022-08-26T02:06:04.557Z,68.20
2022-08-26T02:08:35.894Z,68.20
2022-08-26T02:11:02.704Z,68.20
2022-08-26T02:13:31.364Z,68.10
2022-08-26T02:15:58.746Z,68.20
2022-08-26T02:18:25.677Z,68.90
2022-08-26T02:20:54.058Z,68.30
2022-08-26T02:23:20.671Z,68.30
2022-08-26T02:26:00.336Z,69.30
2022-08-26T02:28:28.521Z,69.70
2022-08-26T02:30:55.731Z,70.50
2022-08-26T02:33:22.542Z,70.80
2022-08-26T02:35:49.123Z,69.80
2022-08-26T02:38:15.737Z,69.90
2022-08-26T02:40:43.769Z,69.80
2022-08-26T02:43:12.235Z,70.30
2022-08-26T02:45:40.178Z,70.80
2022-08-26T02:48:12.005Z,70.80
2022-08-26T02:50:39.278Z,70.40
2022-08-26T02:53:06.171Z,70.00
2022-08-26T02:55:32.996Z,70.10
2022-08-26T02:57:59.827Z,70.60
2022-08-26T03:00:26.542Z,71.60
2022-08-26T03:02:53.272Z,72.20
2022-08-26T03:05:22.237Z,73.00
2022-08-26T03:07:51.031Z,73.20
2022-08-26T03:10:17.906Z,73.40
2022-08-26T03:12:48.101Z,72.80
2022-08-26T03:15:17.938Z,72.40
2022-08-26T03:17:49.104Z,73.40
2022-08-26T03:20:17.638Z,73.30
2022-08-26T03:22:44.908Z,72.70
2022-08-26T03:25:12.866Z,73.40
2022-08-26T03:27:41.469Z,73.50
2022-08-26T03:30:28.849Z,74.60
2022-08-26T03:32:55.438Z,75.50
2022-08-26T03:35:22.431Z,76.20
2022-08-26T03:37:49.277Z,75.90
2022-08-26T03:40:16.272Z,75.80
2022-08-26T03:42:47.727Z,75.40
2022-08-26T03:45:15.547Z,74.10
2022-08-26T03:47:42.266Z,74.40
2022-08-26T03:50:10.044Z,75.20
2022-08-26T03:52:39.639Z,76.30
2022-08-26T03:55:10.778Z,75.70
2022-08-26T03:57:37.350Z,76.20
2022-08-26T04:00:05.582Z,76.20
2022-08-26T04:02:32.207Z,76.20
2022-08-26T04:04:58.794Z,76.20
2022-08-26T04:07:25.987Z,76.20
2022-08-26T04:09:56.342Z,76.30
2022-08-26T04:12:23.499Z,76.20
2022-08-26T04:14:52.464Z,76.20
2022-08-26T04:17:21.046Z,76.20
2022-08-26T04:19:54.983Z,76.10
2022-08-26T04:22:24.789Z,76.20
2022-08-26T04:24:51.962Z,76.10
2022-08-26T04:27:18.618Z,76.10
2022-08-26T04:29:46.543Z,76.10
2022-08-26T04:32:15.441Z,76.20
2022-08-26T04:34:43.383Z,76.20
2022-08-26T04:37:11.698Z,76.20
2022-08-26T04:39:38.274Z,76.20
2022-08-26T04:42:05.869Z,76.20
2022-08-26T04:44:34.647Z,76.70
2022-08-26T04:47:01.249Z,76.20
2022-08-26T04:49:35.149Z,76.20
2022-08-26T04:52:02.758Z,76.20
2022-08-26T04:54:29.339Z,76.20
2022-08-26T04:56:56.078Z,76.30
2022-08-26T04:59:22.798Z,76.30
2022-08-26T05:01:52.653Z,76.20
2022-08-26T05:04:20.109Z,76.30
2022-08-26T05:06:48.201Z,76.30
2022-08-26T05:09:15.442Z,75.70
2022-08-26T05:11:42.483Z,76.40
2022-08-26T05:14:09.676Z,75.20
2022-08-26T05:16:36.353Z,74.20
2022-08-26T05:19:03.498Z,73.20
2022-08-26T05:21:30.100Z,73.10
2022-08-26T05:23:56.819Z,72.20
2022-08-26T05:26:28.875Z,73.00
2022-08-26T05:28:56.187Z,72.50
2022-08-26T05:31:24.418Z,70.80
2022-08-26T05:33:51.166Z,69.00
2022-08-26T05:36:20.264Z,68.40
2022-08-26T05:38:48.661Z,66.40
2022-08-26T05:41:16.584Z,64.40
2022-08-26T05:43:43.524Z,62.60
2022-08-26T05:46:10.559Z,59.90
2022-08-26T05:48:37.669Z,59.10
2022-08-26T05:51:06.311Z,54.80
2022-08-26T05:53:33.519Z,55.00
2022-08-26T05:56:02.264Z,51.90
2022-08-26T05:58:28.877Z,49.00
2022-08-26T06:01:04.439Z,46.60
2022-08-26T06:03:33.288Z,44.80
2022-08-26T06:06:04.405Z,43.10
2022-08-26T06:08:33.376Z,41.90
2022-08-26T06:11:01.373Z,38.60
2022-08-26T06:13:30.370Z,34.20
2022-08-26T06:15:59.268Z,30.30
2022-08-26T06:18:30.599Z,28.80
2022-08-26T06:20:58.385Z,25.30
2022-08-26T06:23:44.648Z,24.80
2022-08-26T06:26:11.834Z,23.70
2022-08-26T06:28:38.437Z,21.40
2022-08-26T06:31:06.035Z,20.50
2022-08-26T06:33:33.197Z,20.50
2022-08-26T06:36:01.131Z,17.80
2022-08-26T06:38:31.590Z,16.30
2022-08-26T06:40:59.824Z,14.10
2022-08-26T06:43:27.791Z,11.60
2022-08-26T06:46:04.257Z,8.90
2022-08-26T06:48:32.135Z,9.30
2022-08-26T06:51:06.497Z,6.90
2022-08-26T06:53:33.124Z,5.90
2022-08-26T06:56:02.771Z,2.30
2022-08-26T06:58:29.334Z,2.20
2022-08-26T07:01:01.993Z,2.20
2022-08-26T07:03:30.412Z,2.10
2022-08-26T07:06:04.863Z,5.00
2022-08-26T07:08:31.805Z,7.00
2022-08-26T07:10:58.479Z,6.90
2022-08-26T07:13:30.648Z,7.80
2022-08-26T07:15:58.045Z,6.90
2022-08-26T07:18:29.533Z,6.80
2022-08-26T07:20:56.080Z,9.70
2022-08-26T07:23:22.882Z,8.00
2022-08-26T07:25:49.728Z,7.00
2022-08-26T07:28:16.297Z,6.40
2022-08-26T07:30:43.439Z,4.50
2022-08-26T07:33:10.024Z,7.00
2022-08-26T07:35:37.816Z,8.70
2022-08-26T07:38:04.411Z,7.10
2022-08-26T07:40:32.076Z,7.10
2022-08-26T07:42:58.730Z,6.10
2022-08-26T07:45:27.625Z,7.10
2022-08-26T07:47:54.379Z,7.20
2022-08-26T07:50:22.322Z,5.50
2022-08-26T07:53:10.695Z,3.80
2022-08-26T07:55:37.540Z,5.00
2022-08-26T07:58:05.538Z,2.50
2022-08-26T08:00:32.894Z,1.10
2022-08-26T08:03:00.017Z,1.00
2022-08-26T08:05:33.596Z,1.00
2022-08-26T08:08:27.207Z,1.00
2022-08-26T08:10:48.859Z,1.00
2022-08-26T08:13:15.732Z,1.00
2022-08-26T08:15:42.353Z,1.00
2022-08-26T08:18:15.668Z,1.00
2022-08-26T08:20:54.440Z,1.00
2022-08-26T08:23:29.606Z,1.00
2022-08-26T08:26:03.652Z,1.00
2022-08-26T08:28:30.310Z,1.00
2022-08-26T08:30:57.767Z,1.00
2022-08-26T08:33:24.626Z,1.00
2022-08-26T08:35:51.235Z,1.00
2022-08-26T08:38:18.833Z,1.00
2022-08-26T08:40:45.971Z,1.00
2022-08-26T08:43:22.658Z,1.00
2022-08-26T08:45:51.236Z,1.00
2022-08-26T08:48:17.837Z,1.00
2022-08-26T08:50:47.259Z,1.00
2022-08-26T08:53:18.918Z,1.00
2022-08-26T08:55:51.617Z,1.00
2022-08-26T08:58:24.602Z,1.00
2022-08-26T09:00:54.034Z,1.00
2022-08-26T09:03:29.201Z,1.00
2022-08-26T09:05:58.789Z,1.00
2022-08-26T09:08:29.173Z,1.00
2022-08-26T09:10:57.100Z,1.00
2022-08-26T09:13:26.367Z,1.00
2022-08-26T09:16:10.357Z,1.00
2022-08-26T09:18:37.234Z,1.00
2022-08-26T09:21:05.821Z,1.00
2022-08-26T09:23:33.089Z,1.00
2022-08-26T09:26:04.318Z,1.00
2022-08-26T09:28:31.546Z,1.00
2022-08-26T09:31:12.087Z,1.00
2022-08-26T09:33:40.087Z,1.00
2022-08-26T09:36:15.201Z,1.00
2022-08-26T09:38:42.707Z,1.00
2022-08-26T09:41:24.642Z,1.00
2022-08-26T09:44:06.615Z,1.00
2022-08-26T09:46:33.442Z,1.00
2022-08-26T09:49:20.088Z,1.00
2022-08-26T09:51:47.083Z,1.00
2022-08-26T09:54:30.491Z,1.00
2022-08-26T09:57:10.686Z,1.00
2022-08-26T09:59:38.051Z,1.00
2022-08-26T10:02:26.065Z,1.00
2022-08-26T10:04:56.456Z,1.00
2022-08-26T10:07:41.581Z,1.00
2022-08-26T10:10:10.736Z,1.00
2022-08-26T10:12:39.621Z,1.00
2022-08-26T10:15:10.721Z,1.00
2022-08-26T10:17:38.422Z,1.00
2022-08-26T10:20:23.152Z,1.00
2022-08-26T10:22:54.452Z,1.00
2022-08-26T10:25:23.404Z,1.00
2022-08-26T10:27:53.846Z,1.00
2022-08-26T10:30:22.809Z,1.00
2022-08-26T10:32:55.516Z,1.00
2022-08-26T10:35:23.531Z,1.00
2022-08-26T10:37:54.263Z,1.00
2022-08-26T10:40:27.283Z,1.00
2022-08-26T10:43:07.091Z,1.00
2022-08-26T10:45:38.492Z,1.00
2022-08-26T10:48:07.652Z,1.00
2022-08-26T10:50:39.965Z,1.00
2022-08-26T10:53:26.494Z,1.00
2022-08-26T10:55:56.014Z,1.00
2022-08-26T10:58:42.617Z,1.00
2022-08-26T11:01:30.238Z,1.00
2022-08-26T11:04:10.409Z,1.00
2022-08-26T11:06:37.710Z,1.00
2022-08-26T11:09:05.787Z,1.00
2022-08-26T11:11:41.803Z,1.00
2022-08-26T11:14:08.357Z,1.00
2022-08-26T11:16:43.471Z,1.00
2022-08-26T11:19:12.538Z,1.00
2022-08-26T11:21:49.495Z,1.00
2022-08-26T11:24:36.454Z,1.00
2022-08-26T11:27:03.017Z,1.00
2022-08-26T11:29:49.257Z,1.00
2022-08-26T11:32:45.118Z,1.00
2022-08-26T11:35:17.948Z,1.00
2022-08-26T11:37:47.699Z,1.00
2022-08-26T11:40:16.221Z,1.00
2022-08-26T11:42:44.355Z,1.00
2022-08-26T11:45:17.411Z,1.00
2022-08-26T11:47:44.741Z,1.00
2022-08-26T11:50:16.851Z,1.00
2022-08-26T11:52:55.428Z,1.00
2022-08-26T11:55:23.269Z,1.00
2022-08-26T11:57:52.836Z,1.00
2022-08-26T12:00:27.978Z,1.00
2022-08-26T12:03:00.596Z,1.00
2022-08-26T12:05:31.418Z,1.00
2022-08-26T12:08:00.565Z,1.00
2022-08-26T12:10:30.088Z,1.00
2022-08-26T12:12:58.666Z,1.00
2022-08-26T12:15:26.346Z,1.00
2022-08-26T12:17:56.292Z,1.00
2022-08-26T12:20:48.523Z,1.00
2022-08-26T12:23:26.815Z,1.00
2022-08-26T12:26:02.024Z,1.00
2022-08-26T12:28:29.971Z,1.00
2022-08-26T12:31:06.208Z,1.00
2022-08-26T12:33:36.286Z,1.00
2022-08-26T12:36:04.857Z,1.00
2022-08-26T12:38:32.141Z,1.00
2022-08-26T12:40:58.722Z,1.00
2022-08-26T12:43:38.482Z,1.00
2022-08-26T12:46:06.676Z,1.00
2022-08-26T12:48:35.967Z,1.00
2022-08-26T12:51:03.084Z,1.00
2022-08-26T12:53:31.186Z,1.00
2022-08-26T12:56:00.218Z,1.00
2022-08-26T12:58:26.822Z,1.00
2022-08-26T13:00:55.310Z,1.00
2022-08-26T13:03:34.297Z,1.00
2022-08-26T13:06:16.004Z,1.00
2022-08-26T13:08:53.727Z,1.00
2022-08-26T13:11:21.611Z,1.00
2022-08-26T13:13:51.779Z,1.00
2022-08-26T13:16:19.622Z,1.00
2022-08-26T13:18:51.487Z,1.00
2022-08-26T13:21:19.669Z,1.00
2022-08-26T13:23:46.736Z,1.00
2022-08-26T13:26:13.339Z,1.00
2022-08-26T13:28:39.977Z,1.00
2022-08-26T13:31:06.753Z,1.00
2022-08-26T13:33:33.385Z,1.00
2022-08-26T13:36:00.600Z,1.00
2022-08-26T13:38:33.749Z,1.00
2022-08-26T13:41:02.442Z,1.00
2022-08-26T13:43:30.349Z,1.00
2022-08-26T13:45:57.025Z,1.00
2022-08-26T13:48:23.762Z,1.00
2022-08-26T13:50:50.653Z,1.00
2022-08-26T13:53:18.648Z,1.00
2022-08-26T13:55:45.212Z,1.00
2022-08-26T13:58:12.081Z,1.00
2022-08-26T14:00:39.578Z,1.00
2022-08-26T14:03:10.148Z,1.00
2022-08-26T14:05:39.295Z,1.00
2022-08-26T14:08:06.460Z,1.00
2022-08-26T14:10:33.119Z,1.00
2022-08-26T14:12:59.781Z,1.00
2022-08-26T14:15:26.492Z,1.00
2022-08-26T14:17:55.834Z,1.00
2022-08-26T14:20:24.994Z,6.50
2022-08-26T14:23:12.473Z,26.50
2022-08-26T14:25:39.082Z,33.00
2022-08-26T14:28:05.628Z,45.00
2022-08-26T14:30:32.173Z,47.40
2022-08-26T14:33:01.689Z,62.40
2022-08-26T14:35:29.099Z,67.60
2022-08-26T14:37:56.246Z,69.90
2022-08-26T14:40:24.232Z,63.10
2022-08-26T14:42:53.944Z,60.70
2022-08-26T14:45:22.150Z,60.50
2022-08-26T14:47:49.270Z,65.50
2022-08-26T14:50:17.234Z,69.10
2022-08-26T14:53:02.947Z,73.20
2022-08-26T14:55:31.461Z,71.80
2022-08-26T14:57:58.115Z,75.60
2022-08-26T15:00:24.714Z,60.00
2022-08-26T15:02:51.598Z,63.30
2022-08-26T15:05:18.488Z,69.00
2022-08-26T15:07:45.047Z,69.10
2022-08-26T15:10:13.836Z,69.60
2022-08-26T15:12:40.834Z,74.80
2022-08-26T15:15:08.254Z,77.80
2022-08-26T15:17:35.257Z,83.00
2022-08-26T15:20:02.026Z,86.20
2022-08-26T15:22:29.452Z,79.60
2022-08-26T15:24:57.033Z,71.30
2022-08-26T15:27:23.627Z,77.60
2022-08-26T15:29:50.812Z,80.00
2022-08-26T15:32:17.499Z,81.20
2022-08-26T15:34:44.319Z,82.60
2022-08-26T15:37:11.077Z,86.10
2022-08-26T15:39:38.098Z,90.10
2022-08-26T15:42:04.881Z,90.60
2022-08-26T15:44:31.530Z,90.40
2022-08-26T15:46:59.108Z,90.70
2022-08-26T15:49:26.009Z,91.70
2022-08-26T15:51:52.693Z,91.90
2022-08-26T15:54:21.050Z,91.90
2022-08-26T15:56:50.461Z,91.90
2022-08-26T15:59:17.178Z,91.90
2022-08-26T16:01:43.950Z,91.90
2022-08-26T16:04:11.353Z,91.90
2022-08-26T16:06:38.756Z,92.50
2022-08-26T16:09:05.842Z,91.90
2022-08-26T16:11:32.947Z,90.30
2022-08-26T16:13:59.726Z,89.70
2022-08-26T16:16:26.948Z,90.80
2022-08-26T16:18:53.788Z,91.50
2022-08-26T16:21:24.554Z,91.90
2022-08-26T16:23:51.740Z,91.90
2022-08-26T16:26:19.556Z,91.90
2022-08-26T16:28:46.144Z,91.90
2022-08-26T16:31:13.291Z,91.00
2022-08-26T16:33:40.578Z,91.50
2022-08-26T16:36:07.954Z,91.90
2022-08-26T16:38:35.528Z,91.90
2022-08-26T16:41:02.203Z,91.90
2022-08-26T16:43:28.873Z,91.90
2022-08-26T16:45:55.951Z,91.90
2022-08-26T16:48:23.510Z,91.40
2022-08-26T16:50:50.561Z,91.20
2022-08-26T16:53:17.119Z,91.90
2022-08-26T16:55:47.394Z,91.20
2022-08-26T16:58:14.602Z,90.60
2022-08-26T17:00:41.177Z,87.20
2022-08-26T17:03:07.898Z,86.20
2022-08-26T17:05:34.660Z,86.90
2022-08-26T17:08:01.234Z,83.30
2022-08-26T17:10:28.484Z,78.30
2022-08-26T17:12:55.439Z,74.90
2022-08-26T17:15:23.711Z,74.40
2022-08-26T17:17:50.969Z,74.10
2022-08-26T17:20:17.819Z,78.00
2022-08-26T17:22:47.254Z,79.70
2022-08-26T17:25:15.861Z,81.70
2022-08-26T17:27:42.679Z,84.20
2022-08-26T17:30:09.833Z,86.30
2022-08-26T17:32:36.611Z,89.00
2022-08-26T17:35:03.925Z,90.10
2022-08-26T17:37:30.567Z,90.40
2022-08-26T17:39:58.344Z,91.00
2022-08-26T17:42:31.631Z,91.30
2022-08-26T17:44:58.671Z,91.90
2022-08-26T17:47:25.389Z,91.90
2022-08-26T17:49:52.029Z,92.00
2022-08-26T17:52:18.602Z,92.00
2022-08-26T17:54:45.210Z,91.40
2022-08-26T17:57:11.788Z,91.20
2022-08-26T17:59:39.016Z,91.10
2022-08-26T18:02:07.642Z,91.60
2022-08-26T18:04:34.291Z,91.90
2022-08-26T18:07:01.389Z,91.90
2022-08-26T18:09:31.633Z,92.40
2022-08-26T18:11:58.949Z,92.80
2022-08-26T18:14:25.879Z,93.40
2022-08-26T18:16:52.489Z,93.70
2022-08-26T18:19:19.576Z,93.90
2022-08-26T18:21:46.287Z,94.50
2022-08-26T18:24:14.271Z,94.10
2022-08-26T18:26:47.925Z,94.20
2022-08-26T18:29:15.156Z,93.90
2022-08-26T18:31:41.831Z,93.70
2022-08-26T18:34:12.706Z,93.40
2022-08-26T18:36:42.198Z,93.70
2022-08-26T18:39:09.166Z,93.70
2022-08-26T18:41:40.260Z,93.50
2022-08-26T18:44:09.480Z,93.50
2022-08-26T18:46:38.359Z,93.80
2022-08-26T18:49:05.015Z,94.00
2022-08-26T18:51:32.897Z,94.40
2022-08-26T18:54:00.415Z,94.50
2022-08-26T18:56:27.550Z,94.70
2022-08-26T18:58:54.331Z,94.90
2022-08-26T19:01:25.388Z,94.70
2022-08-26T19:03:54.406Z,95.00
2022-08-26T19:06:22.184Z,95.40
2022-08-26T19:08:49.901Z,95.40
2022-08-26T19:11:17.124Z,95.50
2022-08-26T19:13:58.688Z,95.10
2022-08-26T19:16:26.158Z,92.90
2022-08-26T19:18:53.554Z,92.00
2022-08-26T19:21:20.918Z,91.60
2022-08-26T19:23:48.176Z,91.10
2022-08-26T19:26:15.088Z,90.50
2022-08-26T19:28:41.702Z,90.40
2022-08-26T19:31:10.422Z,89.60
2022-08-26T19:33:39.780Z,88.20
2022-08-26T19:36:06.844Z,86.70
2022-08-26T19:38:33.726Z,81.90
2022-08-26T19:41:00.357Z,83.30
2022-08-26T19:43:27.111Z,84.70
2022-08-26T19:45:53.732Z,86.50
2022-08-26T19:48:20.467Z,89.40
2022-08-26T19:50:47.163Z,90.60
2022-08-26T19:53:13.797Z,91.20
2022-08-26T19:55:40.356Z,92.00
2022-08-26T19:58:07.891Z,91.90
2022-08-26T20:00:36.635Z,91.90
2022-08-26T20:03:03.535Z,91.90
2022-08-26T20:05:30.628Z,92.40
2022-08-26T20:07:57.269Z,92.80
2022-08-26T20:10:23.964Z,93.20
2022-08-26T20:12:51.851Z,93.80
2022-08-26T20:15:19.494Z,94.20
2022-08-26T20:17:46.278Z,94.60
2022-08-26T20:20:34.705Z,94.90
2022-08-26T20:23:03.601Z,95.00
2022-08-26T20:25:32.452Z,95.10
2022-08-26T20:27:59.428Z,95.40
2022-08-26T20:30:26.104Z,95.40
2022-08-26T20:32:52.735Z,95.40
2022-08-26T20:35:19.346Z,95.40
2022-08-26T20:37:46.007Z,95.40
2022-08-26T20:40:13.641Z,95.40
2022-08-26T20:42:40.305Z,95.40
2022-08-26T20:45:07.910Z,95.40
2022-08-26T20:47:34.583Z,95.40
2022-08-26T20:50:02.361Z,95.40
2022-08-26T20:52:29.024Z,94.70
2022-08-26T20:54:55.734Z,94.50
2022-08-26T20:57:22.359Z,94.50
2022-08-26T20:59:49.121Z,94.20
2022-08-26T21:02:15.893Z,94.10
2022-08-26T21:04:42.556Z,94.10
2022-08-26T21:07:09.360Z,94.20
2022-08-26T21:09:36.066Z,93.90
2022-08-26T21:12:04.084Z,93.90
2022-08-26T21:14:30.682Z,93.50
2022-08-26T21:16:58.118Z,93.50
2022-08-26T21:19:24.859Z,93.50
2022-08-26T21:21:51.454Z,93.50
2022-08-26T21:24:18.089Z,93.50
2022-08-26T21:26:44.907Z,93.50
2022-08-26T21:29:13.455Z,93.80
2022-08-26T21:31:45.056Z,93.60
2022-08-26T21:34:13.489Z,93.20
2022-08-26T21:36:40.162Z,93.40
2022-08-26T21:39:11.220Z,93.40
2022-08-26T21:41:38.444Z,93.20
2022-08-26T21:44:05.050Z,92.90
2022-08-26T21:46:31.661Z,93.00
2022-08-26T21:48:59.641Z,92.40
2022-08-26T21:51:27.935Z,91.90
2022-08-26T21:53:55.496Z,91.60
2022-08-26T21:56:26.161Z,91.60
2022-08-26T21:58:53.248Z,91.60
2022-08-26T22:01:21.589Z,91.60
2022-08-26T22:03:49.141Z,91.60
2022-08-26T22:06:17.386Z,92.40
2022-08-26T22:08:44.075Z,92.60
2022-08-26T22:11:10.806Z,92.90
2022-08-26T22:13:38.867Z,93.00
2022-08-26T22:16:05.782Z,93.20
2022-08-26T22:18:32.722Z,92.90
2022-08-26T22:21:00.697Z,92.80
2022-08-26T22:23:27.385Z,92.90
2022-08-26T22:25:54.463Z,93.10
2022-08-26T22:28:21.494Z,93.30
2022-08-26T22:30:48.674Z,93.40
2022-08-26T22:33:15.883Z,93.40
2022-08-26T22:35:44.657Z,93.50
2022-08-26T22:38:11.552Z,93.30
2022-08-26T22:40:38.434Z,92.70
2022-08-26T22:43:05.550Z,93.00
2022-08-26T22:45:32.374Z,93.20
2022-08-26T22:47:59.995Z,93.30
2022-08-26T22:50:26.595Z,93.30
2022-08-26T22:52:53.148Z,93.40
2022-08-26T22:55:19.750Z,93.10
2022-08-26T22:57:46.364Z,93.30
2022-08-26T23:00:13.773Z,93.40
2022-08-26T23:02:41.227Z,93.50
2022-08-26T23:05:08.551Z,93.30
2022-08-26T23:07:36.230Z,93.60
2022-08-26T23:10:04.890Z,93.70
2022-08-26T23:12:32.490Z,93.50
2022-08-26T23:14:59.150Z,93.50
2022-08-26T23:17:25.762Z,93.50
2022-08-26T23:19:52.360Z,93.90
2022-08-26T23:22:19.023Z,93.70
2022-08-26T23:24:45.592Z,93.90
2022-08-26T23:27:12.132Z,94.30
2022-08-26T23:29:39.612Z,94.50
2022-08-26T23:32:06.314Z,94.40
2022-08-26T23:34:51.938Z,94.60
2022-08-26T23:37:19.574Z,95.00
2022-08-26T23:39:47.474Z,95.00
2022-08-26T23:42:14.075Z,95.00
2022-08-26T23:44:40.744Z,95.00
2022-08-26T23:47:07.817Z,95.00
2022-08-26T23:49:34.635Z,95.00
2022-08-26T23:52:19.775Z,95.00
2022-08-26T23:54:48.649Z,95.00
2022-08-26T23:57:16.326Z,95.00
2022-08-26T23:59:43.210Z,94.90
